sensor_id;sensor_type;location;lat;lon;timestamp;pressure;altitude;pressure_sealevel;temperature;humidity
75717;BME280;64333;50.138;14.332;2023-01-25T00:02:05;99948.56;;;2.30;89.82
75717;BME280;64333;50.138;14.332;2023-01-25T00:04:30;99942.66;;;2.34;90.03
75717;BME280;64333;50.138;14.332;2023-01-25T00:06:56;99918.69;;;2.22;89.78
75717;BME280;64333;50.138;14.332;2023-01-25T00:09:22;99933.28;;;2.30;89.76
75717;BME280;64333;50.138;14.332;2023-01-25T00:11:48;99941.75;;;2.29;89.78
75717;BME280;64333;50.138;14.332;2023-01-25T00:14:14;99942.47;;;2.22;89.84
75717;BME280;64333;50.138;14.332;2023-01-25T00:16:40;99951.69;;;2.14;90.64
75717;BME280;64333;50.138;14.332;2023-01-25T00:19:06;99951.84;;;2.23;90.35
75717;BME280;64333;50.138;14.332;2023-01-25T00:21:32;99948.56;;;2.30;90.12
75717;BME280;64333;50.138;14.332;2023-01-25T00:23:59;99948.63;;;2.35;89.73
75717;BME280;64333;50.138;14.332;2023-01-25T00:26:24;99943.63;;;2.41;89.40
75717;BME280;64333;50.138;14.332;2023-01-25T00:28:54;99941.06;;;2.41;89.70
75717;BME280;64333;50.138;14.332;2023-01-25T00:34:36;99931.81;;;2.47;89.22
75717;BME280;64333;50.138;14.332;2023-01-25T00:36:45;99930.97;;;2.47;88.73
75717;BME280;64333;50.138;14.332;2023-01-25T00:39:12;99924.13;;;2.44;89.05
75717;BME280;64333;50.138;14.332;2023-01-25T00:41:38;99930.19;;;2.52;88.96
75717;BME280;64333;50.138;14.332;2023-01-25T00:44:04;99931.03;;;2.51;89.00
75717;BME280;64333;50.138;14.332;2023-01-25T00:46:29;99929.25;;;2.47;88.82
75717;BME280;64333;50.138;14.332;2023-01-25T00:48:54;99929.25;;;2.47;88.82
75717;BME280;64333;50.138;14.332;2023-01-25T00:51:20;99932.63;;;2.45;89.21
75717;BME280;64333;50.138;14.332;2023-01-25T00:53:46;99929.22;;;2.44;89.04
75717;BME280;64333;50.138;14.332;2023-01-25T00:56:11;99924.13;;;2.46;89.22
75717;BME280;64333;50.138;14.332;2023-01-25T00:58:36;99924.16;;;2.47;89.10
75717;BME280;64333;50.138;14.332;2023-01-25T01:01:02;99916.47;;;2.44;88.60
75717;BME280;64333;50.138;14.332;2023-01-25T01:03:27;99925.97;;;2.54;88.42
75717;BME280;64333;50.138;14.332;2023-01-25T01:06:05;99926.00;;;2.57;88.34
75717;BME280;64333;50.138;14.332;2023-01-25T01:08:37;99928.56;;;2.57;88.14
75717;BME280;64333;50.138;14.332;2023-01-25T01:11:05;99929.38;;;2.55;88.34
75717;BME280;64333;50.138;14.332;2023-01-25T01:13:30;99921.66;;;2.50;87.80
75717;BME280;64333;50.138;14.332;2023-01-25T01:16:02;99932.78;;;2.54;88.37
75717;BME280;64333;50.138;14.332;2023-01-25T01:18:32;99935.28;;;2.52;88.62
75717;BME280;64333;50.138;14.332;2023-01-25T01:20:57;99928.50;;;2.53;88.77
75717;BME280;64333;50.138;14.332;2023-01-25T01:23:23;99936.16;;;2.53;88.68
75717;BME280;64333;50.138;14.332;2023-01-25T01:25:48;99928.50;;;2.53;88.25
75717;BME280;64333;50.138;14.332;2023-01-25T01:28:14;99916.47;;;2.44;88.76
75717;BME280;64333;50.138;14.332;2023-01-25T01:30:40;99927.59;;;2.51;88.69
75717;BME280;64333;50.138;14.332;2023-01-25T01:33:05;99925.06;;;2.49;88.70
75717;BME280;64333;50.138;14.332;2023-01-25T01:35:31;99915.63;;;2.45;88.85
75717;BME280;64333;50.138;14.332;2023-01-25T01:37:57;99930.19;;;2.52;88.60
75717;BME280;64333;50.138;14.332;2023-01-25T01:40:23;99931.91;;;2.53;88.46
75717;BME280;64333;50.138;14.332;2023-01-25T01:43:00;99925.09;;;2.52;88.38
75717;BME280;64333;50.138;14.332;2023-01-25T01:53:36;99925.09;;;2.52;88.61
75717;BME280;64333;50.138;14.332;2023-01-25T01:56:05;99913.16;;;2.50;88.56
75717;BME280;64333;50.138;14.332;2023-01-25T01:58:32;99917.41;;;2.49;88.91
75717;BME280;64333;50.138;14.332;2023-01-25T02:00:58;99914.03;;;2.50;88.82
75717;BME280;64333;50.138;14.332;2023-01-25T02:03:23;99919.03;;;2.46;88.87
75717;BME280;64333;50.138;14.332;2023-01-25T02:06:12;99907.97;;;2.44;89.14
75717;BME280;64333;50.138;14.332;2023-01-25T02:08:38;99911.38;;;2.44;89.28
75717;BME280;64333;50.138;14.332;2023-01-25T02:11:06;99913.13;;;2.47;88.99
75717;BME280;64333;50.138;14.332;2023-01-25T02:13:32;99882.94;;;2.19;89.79
75717;BME280;64333;50.138;14.332;2023-01-25T02:15:59;99908.63;;;2.29;89.70
75717;BME280;64333;50.138;14.332;2023-01-25T02:18:25;99906.72;;;2.18;90.52
75717;BME280;64333;50.138;14.332;2023-01-25T02:20:52;99899.78;;;2.08;91.07
75717;BME280;64333;50.138;14.332;2023-01-25T02:23:39;99909.41;;;2.25;90.35
75717;BME280;64333;50.138;14.332;2023-01-25T02:26:11;99889.00;;;2.25;90.10
75717;BME280;64333;50.138;14.332;2023-01-25T02:28:41;99889.97;;;2.33;89.29
75717;BME280;64333;50.138;14.332;2023-01-25T02:31:09;99896.03;;;2.41;89.90
75717;BME280;64333;50.138;14.332;2023-01-25T02:33:35;99896.88;;;2.42;89.09
75717;BME280;64333;50.138;14.332;2023-01-25T02:38:34;99896.97;;;2.48;89.26
75717;BME280;64333;50.138;14.332;2023-01-25T02:41:12;99898.69;;;2.49;89.08
75717;BME280;64333;50.138;14.332;2023-01-25T02:43:40;99889.38;;;2.49;88.90
75717;BME280;64333;50.138;14.332;2023-01-25T02:46:15;99880.03;;;2.51;89.19
75717;BME280;64333;50.138;14.332;2023-01-25T02:48:41;99891.66;;;2.31;89.75
75717;BME280;64333;50.138;14.332;2023-01-25T02:51:08;99878.84;;;2.27;90.19
75717;BME280;64333;50.138;14.332;2023-01-25T02:53:33;99885.69;;;2.29;89.95
75717;BME280;64333;50.138;14.332;2023-01-25T02:55:59;99883.13;;;2.29;90.07
75717;BME280;64333;50.138;14.332;2023-01-25T02:58:24;99868.50;;;2.16;90.67
75717;BME280;64333;50.138;14.332;2023-01-25T03:00:50;99857.47;;;2.17;90.80
75717;BME280;64333;50.138;14.332;2023-01-25T03:03:15;99861.00;;;2.27;90.38
75717;BME280;64333;50.138;14.332;2023-01-25T03:05:40;99864.53;;;2.36;89.83
75717;BME280;64333;50.138;14.332;2023-01-25T03:08:06;99866.00;;;2.22;90.09
75717;BME280;64333;50.138;14.332;2023-01-25T03:10:31;99860.00;;;2.19;90.56
75717;BME280;64333;50.138;14.332;2023-01-25T03:12:56;99858.13;;;2.04;91.44
75717;BME280;64333;50.138;14.332;2023-01-25T03:15:22;99861.31;;;1.91;92.09
75717;BME280;64333;50.138;14.332;2023-01-25T03:17:47;99846.84;;;1.89;92.44
75717;BME280;64333;50.138;14.332;2023-01-25T03:20:12;99846.06;;;1.94;92.08
75717;BME280;64333;50.138;14.332;2023-01-25T03:22:38;99854.59;;;1.96;91.90
75717;BME280;64333;50.138;14.332;2023-01-25T03:25:03;99853.78;;;2.00;91.91
75717;BME280;64333;50.138;14.332;2023-01-25T03:27:29;99841.06;;;2.00;91.82
75717;BME280;64333;50.138;14.332;2023-01-25T03:29:55;99824.84;;;1.95;91.92
75717;BME280;64333;50.138;14.332;2023-01-25T03:32:20;99807.53;;;1.73;92.96
75717;BME280;64333;50.138;14.332;2023-01-25T03:34:46;99829.91;;;1.92;92.21
75717;BME280;64333;50.138;14.332;2023-01-25T03:37:12;99825.66;;;1.91;92.20
75717;BME280;64333;50.138;14.332;2023-01-25T03:39:37;99832.44;;;1.92;92.58
75717;BME280;64333;50.138;14.332;2023-01-25T03:42:03;99834.34;;;2.05;92.00
75717;BME280;64333;50.138;14.332;2023-01-25T03:44:28;99822.66;;;2.19;91.20
75717;BME280;64333;50.138;14.332;2023-01-25T03:46:54;99818.47;;;2.24;90.39
75717;BME280;64333;50.138;14.332;2023-01-25T03:49:19;99817.66;;;2.28;90.05
75717;BME280;64333;50.138;14.332;2023-01-25T03:51:44;99821.16;;;2.35;89.95
75717;BME280;64333;50.138;14.332;2023-01-25T03:54:10;99816.91;;;2.34;89.66
75717;BME280;64333;50.138;14.332;2023-01-25T03:56:36;99809.22;;;2.29;89.88
75717;BME280;64333;50.138;14.332;2023-01-25T03:59:02;99812.56;;;2.28;90.04
75717;BME280;64333;50.138;14.332;2023-01-25T04:01:27;99821.13;;;2.33;90.06
75717;BME280;64333;50.138;14.332;2023-01-25T04:03:52;99817.81;;;2.37;89.82
75717;BME280;64333;50.138;14.332;2023-01-25T04:06:18;99812.66;;;2.34;89.51
75717;BME280;64333;50.138;14.332;2023-01-25T04:08:43;99802.53;;;2.40;89.67
75717;BME280;64333;50.138;14.332;2023-01-25T04:11:09;99797.41;;;2.37;89.03
75717;BME280;64333;50.138;14.332;2023-01-25T04:13:35;99807.69;;;2.45;88.92
75717;BME280;64333;50.138;14.332;2023-01-25T04:16:08;99806.00;;;2.45;88.84
75717;BME280;64333;50.138;14.332;2023-01-25T04:18:36;99806.00;;;2.45;88.67
75717;BME280;64333;50.138;14.332;2023-01-25T04:21:01;99798.34;;;2.44;88.89
75717;BME280;64333;50.138;14.332;2023-01-25T04:23:27;99802.63;;;2.46;88.85
75717;BME280;64333;50.138;14.332;2023-01-25T04:26:00;99800.06;;;2.46;88.96
75717;BME280;64333;50.138;14.332;2023-01-25T04:28:26;99802.66;;;2.49;88.95
75717;BME280;64333;50.138;14.332;2023-01-25T04:30:53;99801.00;;;2.54;88.45
75717;BME280;64333;50.138;14.332;2023-01-25T04:33:18;99796.78;;;2.55;88.16
75717;BME280;64333;50.138;14.332;2023-01-25T04:35:44;99789.09;;;2.53;88.10
75717;BME280;64333;50.138;14.332;2023-01-25T04:38:09;99791.72;;;2.56;88.10
75717;BME280;64333;50.138;14.332;2023-01-25T04:40:34;99781.50;;;2.58;87.95
75717;BME280;64333;50.138;14.332;2023-01-25T04:43:00;99789.22;;;2.64;87.84
75717;BME280;64333;50.138;14.332;2023-01-25T04:45:26;99799.44;;;2.65;87.34
75717;BME280;64333;50.138;14.332;2023-01-25T04:47:59;99796.03;;;2.63;87.84
75717;BME280;64333;50.138;14.332;2023-01-25T04:50:25;99796.84;;;2.62;87.64
75717;BME280;64333;50.138;14.332;2023-01-25T04:52:51;99795.25;;;2.69;87.31
75717;BME280;64333;50.138;14.332;2023-01-25T04:55:17;99795.22;;;2.67;87.44
75717;BME280;64333;50.138;14.332;2023-01-25T04:57:42;99795.22;;;2.67;87.94
75717;BME280;64333;50.138;14.332;2023-01-25T05:00:08;99787.53;;;2.64;87.57
75717;BME280;64333;50.138;14.332;2023-01-25T05:02:34;99793.56;;;2.69;87.28
75717;BME280;64333;50.138;14.332;2023-01-25T05:04:59;99786.72;;;2.67;87.69
75717;BME280;64333;50.138;14.332;2023-01-25T05:07:25;99786.72;;;2.67;87.64
75717;BME280;64333;50.138;14.332;2023-01-25T05:09:50;99786.75;;;2.70;87.87
75717;BME280;64333;50.138;14.332;2023-01-25T05:12:16;99779.91;;;2.67;88.22
75717;BME280;64333;50.138;14.332;2023-01-25T05:14:41;99780.81;;;2.69;87.98
75717;BME280;64333;50.138;14.332;2023-01-25T05:17:07;99779.97;;;2.73;87.42
75717;BME280;64333;50.138;14.332;2023-01-25T05:19:33;99780.81;;;2.72;87.42
75717;BME280;64333;50.138;14.332;2023-01-25T05:22:00;99783.41;;;2.75;87.41
75717;BME280;64333;50.138;14.332;2023-01-25T05:24:31;99777.50;;;2.79;87.30
75717;BME280;64333;50.138;14.332;2023-01-25T05:26:57;99781.75;;;2.80;86.88
75717;BME280;64333;50.138;14.332;2023-01-25T05:29:29;99780.03;;;2.78;87.13
75717;BME280;64333;50.138;14.332;2023-01-25T05:31:56;99762.94;;;2.71;86.83
75717;BME280;64333;50.138;14.332;2023-01-25T05:34:22;99770.63;;;2.75;86.80
75717;BME280;64333;50.138;14.332;2023-01-25T05:36:47;99779.25;;;2.83;86.93
75717;BME280;64333;50.138;14.332;2023-01-25T05:39:13;99780.97;;;2.84;86.75
75717;BME280;64333;50.138;14.332;2023-01-25T05:41:38;99779.31;;;2.89;86.74
75717;BME280;64333;50.138;14.332;2023-01-25T05:44:04;99775.00;;;2.84;86.65
75717;BME280;64333;50.138;14.332;2023-01-25T05:46:29;99779.31;;;2.89;86.47
75717;BME280;64333;50.138;14.332;2023-01-25T05:48:55;99785.25;;;2.90;86.64
75717;BME280;64333;50.138;14.332;2023-01-25T05:51:20;99775.88;;;2.87;86.58
75717;BME280;64333;50.138;14.332;2023-01-25T05:53:46;99781.88;;;2.89;86.85
75717;BME280;64333;50.138;14.332;2023-01-25T05:56:11;99774.16;;;2.83;86.57
75717;BME280;64333;50.138;14.332;2023-01-25T05:58:37;99786.00;;;2.81;86.65
75717;BME280;64333;50.138;14.332;2023-01-25T06:01:04;99782.66;;;2.85;86.31
75717;BME280;64333;50.138;14.332;2023-01-25T06:03:30;99785.25;;;2.87;86.79
75717;BME280;64333;50.138;14.332;2023-01-25T06:05:56;99784.38;;;2.86;87.09
75717;BME280;64333;50.138;14.332;2023-01-25T06:08:23;99782.69;;;2.87;86.73
75717;BME280;64333;50.138;14.332;2023-01-25T06:10:48;99792.06;;;2.88;86.62
75717;BME280;64333;50.138;14.332;2023-01-25T06:13:13;99779.28;;;2.86;86.79
75717;BME280;64333;50.138;14.332;2023-01-25T06:15:39;99779.31;;;2.89;86.66
75717;BME280;64333;50.138;14.332;2023-01-25T06:18:04;99781.88;;;2.89;86.48
75717;BME280;64333;50.138;14.332;2023-01-25T06:20:29;99784.38;;;2.86;86.53
75717;BME280;64333;50.138;14.332;2023-01-25T06:22:55;99780.97;;;2.87;86.88
75717;BME280;64333;50.138;14.332;2023-01-25T06:25:20;99782.66;;;2.85;86.79
75717;BME280;64333;50.138;14.332;2023-01-25T06:27:46;99782.66;;;2.85;86.75
75717;BME280;64333;50.138;14.332;2023-01-25T06:30:11;99769.06;;;2.83;87.00
75717;BME280;64333;50.138;14.332;2023-01-25T06:32:37;99779.25;;;2.83;86.66
75717;BME280;64333;50.138;14.332;2023-01-25T06:35:03;99767.38;;;2.85;86.98
75717;BME280;64333;50.138;14.332;2023-01-25T06:37:28;99773.25;;;2.81;87.29
75717;BME280;64333;50.138;14.332;2023-01-25T06:39:53;99775.06;;;2.90;86.58
75717;BME280;64333;50.138;14.332;2023-01-25T06:42:19;99767.44;;;2.91;86.50
75717;BME280;64333;50.138;14.332;2023-01-25T06:44:44;99759.72;;;2.87;86.85
75717;BME280;64333;50.138;14.332;2023-01-25T06:47:10;99763.13;;;2.87;86.52
75717;BME280;64333;50.138;14.332;2023-01-25T06:49:36;99762.25;;;2.84;86.65
75717;BME280;64333;50.138;14.332;2023-01-25T06:52:02;99760.56;;;2.84;86.79
75717;BME280;64333;50.138;14.332;2023-01-25T06:54:27;99756.19;;;2.73;87.12
75717;BME280;64333;50.138;14.332;2023-01-25T06:56:53;99763.88;;;2.77;87.14
75717;BME280;64333;50.138;14.332;2023-01-25T06:59:18;99731.50;;;2.70;86.69
75717;BME280;64333;50.138;14.332;2023-01-25T07:01:43;99763.97;;;2.86;87.08
75717;BME280;64333;50.138;14.332;2023-01-25T07:04:10;99757.13;;;2.81;86.65
75717;BME280;64333;50.138;14.332;2023-01-25T07:06:36;99759.53;;;2.69;87.30
75717;BME280;64333;50.138;14.332;2023-01-25T07:09:07;99761.28;;;2.73;87.87
75717;BME280;64333;50.138;14.332;2023-01-25T07:11:33;99765.59;;;2.81;87.40
75717;BME280;64333;50.138;14.332;2023-01-25T07:13:58;99768.22;;;2.87;87.13
75717;BME280;64333;50.138;14.332;2023-01-25T07:16:24;99770.78;;;2.87;87.28
75717;BME280;64333;50.138;14.332;2023-01-25T07:18:50;99766.56;;;2.89;87.22
75717;BME280;64333;50.138;14.332;2023-01-25T07:21:18;99768.31;;;2.95;87.10
75717;BME280;64333;50.138;14.332;2023-01-25T07:23:44;99758.06;;;2.92;86.71
75717;BME280;64333;50.138;14.332;2023-01-25T07:26:21;99763.22;;;2.95;87.08
75717;BME280;64333;50.138;14.332;2023-01-25T07:28:48;99760.69;;;2.96;86.60
75717;BME280;64333;50.138;14.332;2023-01-25T07:31:15;99759.81;;;2.96;90.66
75717;BME280;64333;50.138;14.332;2023-01-25T07:33:41;99764.19;;;3.06;91.88
75717;BME280;64333;50.138;14.332;2023-01-25T07:36:08;99755.66;;;3.08;89.54
75717;BME280;64333;50.138;14.332;2023-01-25T07:38:35;99759.06;;;3.07;87.42
75717;BME280;64333;50.138;14.332;2023-01-25T07:41:01;99753.13;;;3.08;89.22
75717;BME280;64333;50.138;14.332;2023-01-25T07:43:27;99716.09;;;2.63;88.08
75717;BME280;64333;50.138;14.332;2023-01-25T07:45:59;99735.72;;;2.68;88.52
75717;BME280;64333;50.138;14.332;2023-01-25T07:48:24;99746.09;;;2.86;88.36
75717;BME280;64333;50.138;14.332;2023-01-25T07:50:50;99736.81;;;2.94;87.99
75717;BME280;64333;50.138;14.332;2023-01-25T07:53:39;99723.03;;;2.73;88.05
75717;BME280;64333;50.138;14.332;2023-01-25T07:56:05;99743.44;;;2.74;89.06
75717;BME280;64333;50.138;14.332;2023-01-25T07:58:31;99742.47;;;2.65;88.78
75717;BME280;64333;50.138;14.332;2023-01-25T08:00:56;99748.59;;;2.80;88.08
75717;BME280;64333;50.138;14.332;2023-01-25T08:03:21;99747.91;;;2.95;88.73
75717;BME280;64333;50.138;14.332;2023-01-25T08:05:47;99750.56;;;3.08;87.85
75717;BME280;64333;50.138;14.332;2023-01-25T08:08:13;99739.47;;;3.05;87.93
75717;BME280;64333;50.138;14.332;2023-01-25T08:10:39;99738.56;;;2.98;87.53
75717;BME280;64333;50.138;14.332;2023-01-25T08:13:04;99741.94;;;2.93;87.36
75717;BME280;64333;50.138;14.332;2023-01-25T08:15:31;99730.94;;;3.01;86.93
75717;BME280;64333;50.138;14.332;2023-01-25T08:17:59;99735.31;;;3.13;87.10
75717;BME280;64333;50.138;14.332;2023-01-25T08:20:24;99735.31;;;3.14;86.77
75717;BME280;64333;50.138;14.332;2023-01-25T08:22:51;99731.78;;;3.00;86.76
75717;BME280;64333;50.138;14.332;2023-01-25T08:25:16;99736.03;;;3.01;86.75
75717;BME280;64333;50.138;14.332;2023-01-25T08:27:42;99735.19;;;3.02;86.66
75717;BME280;64333;50.138;14.332;2023-01-25T08:30:08;99734.41;;;3.08;87.40
75717;BME280;64333;50.138;14.332;2023-01-25T08:32:34;99736.25;;;3.22;86.46
75717;BME280;64333;50.138;14.332;2023-01-25T08:35:00;99706.22;;;2.94;86.28
75717;BME280;64333;50.138;14.332;2023-01-25T08:37:25;99718.22;;;3.04;86.56
75717;BME280;64333;50.138;14.332;2023-01-25T08:39:54;99719.88;;;2.99;86.45
75717;BME280;64333;50.138;14.332;2023-01-25T08:42:21;99721.63;;;3.03;87.69
75717;BME280;64333;50.138;14.332;2023-01-25T08:44:47;99704.63;;;3.07;86.39
75717;BME280;64333;50.138;14.332;2023-01-25T08:47:13;99698.69;;;3.11;86.08
75717;BME280;64333;50.138;14.332;2023-01-25T08:49:38;99693.69;;;3.20;85.59
75717;BME280;64333;50.138;14.332;2023-01-25T08:52:04;99704.94;;;3.47;85.96
75717;BME280;64333;50.138;14.332;2023-01-25T08:54:29;99701.34;;;3.20;85.43
75717;BME280;64333;50.138;14.332;2023-01-25T08:56:55;99706.56;;;3.35;84.49
75717;BME280;64333;50.138;14.332;2023-01-25T08:59:20;99709.06;;;3.29;84.74
75717;BME280;64333;50.138;14.332;2023-01-25T09:01:46;99708.22;;;3.30;84.68
75717;BME280;64333;50.138;14.332;2023-01-25T09:04:11;99697.16;;;3.29;84.53
75717;BME280;64333;50.138;14.332;2023-01-25T09:06:37;99672.41;;;3.21;85.07
75717;BME280;64333;50.138;14.332;2023-01-25T09:09:02;99684.41;;;3.29;84.56
75717;BME280;64333;50.138;14.332;2023-01-25T09:11:29;99685.19;;;3.21;84.88
75717;BME280;64333;50.138;14.332;2023-01-25T09:13:55;99681.72;;;3.16;85.71
75717;BME280;64333;50.138;14.332;2023-01-25T09:16:22;99678.28;;;3.09;85.85
75717;BME280;64333;50.138;14.332;2023-01-25T09:18:53;99679.09;;;3.05;85.64
75717;BME280;64333;50.138;14.332;2023-01-25T09:21:19;99677.50;;;3.19;85.08
75717;BME280;64333;50.138;14.332;2023-01-25T09:23:47;99677.63;;;3.37;83.62
75717;BME280;64333;50.138;14.332;2023-01-25T09:26:14;99676.88;;;3.50;83.10
75717;BME280;64333;50.138;14.332;2023-01-25T09:28:41;99685.38;;;3.48;83.83
75717;BME280;64333;50.138;14.332;2023-01-25T09:31:08;99686.81;;;3.14;84.62
75717;BME280;64333;50.138;14.332;2023-01-25T09:33:37;99682.66;;;3.25;85.02
75717;BME280;64333;50.138;14.332;2023-01-25T09:36:03;99676.78;;;3.37;83.11
75717;BME280;64333;50.138;14.332;2023-01-25T09:38:29;99680.16;;;3.33;84.38
75717;BME280;64333;50.138;14.332;2023-01-25T09:46:16;99672.41;;;3.19;84.91
75717;BME280;64333;50.138;14.332;2023-01-25T09:49:16;99680.81;;;3.06;85.34
75717;BME280;64333;50.138;14.332;2023-01-25T09:52:11;99677.34;;;2.98;85.69
75717;BME280;64333;50.138;14.332;2023-01-25T09:54:39;99676.56;;;3.07;84.90
75717;BME280;64333;50.138;14.332;2023-01-25T09:57:14;99669.72;;;3.00;85.33
75717;BME280;64333;50.138;14.332;2023-01-25T09:59:42;99670.47;;;2.91;85.43
75717;BME280;64333;50.138;14.332;2023-01-25T10:02:23;99666.34;;;3.08;85.12
75717;BME280;64333;50.138;14.332;2023-01-25T10:04:53;99654.44;;;3.07;84.53
75717;BME280;64333;50.138;14.332;2023-01-25T10:07:49;99651.97;;;3.19;84.50
75717;BME280;64333;50.138;14.332;2023-01-25T10:10:28;99646.03;;;3.22;85.35
75717;BME280;64333;50.138;14.332;2023-01-25T10:12:54;99631.56;;;3.21;84.15
75717;BME280;64333;50.138;14.332;2023-01-25T10:15:22;99636.78;;;3.37;83.10
75717;BME280;64333;50.138;14.332;2023-01-25T10:20:47;99634.16;;;3.22;84.00
75717;BME280;64333;50.138;14.332;2023-01-25T10:23:30;99635.03;;;3.26;84.25
75717;BME280;64333;50.138;14.332;2023-01-25T10:26:16;99633.34;;;3.35;83.77
75717;BME280;64333;50.138;14.332;2023-01-25T10:34:14;99622.34;;;3.42;83.23
75717;BME280;64333;50.138;14.332;2023-01-25T10:36:41;99616.31;;;3.34;83.95
75717;BME280;64333;50.138;14.332;2023-01-25T10:39:08;99621.38;;;3.28;84.03
75717;BME280;64333;50.138;14.332;2023-01-25T10:41:43;99614.66;;;3.36;83.82
75717;BME280;64333;50.138;14.332;2023-01-25T10:44:11;99613.81;;;3.40;83.56
75717;BME280;64333;50.138;14.332;2023-01-25T10:46:50;99607.03;;;3.42;83.37
75717;BME280;64333;50.138;14.332;2023-01-25T10:49:31;99613.78;;;3.33;83.69
75717;BME280;64333;50.138;14.332;2023-01-25T10:54:39;99608.75;;;3.43;83.37
75717;BME280;64333;50.138;14.332;2023-01-25T10:57:12;99601.84;;;3.29;84.24
75717;BME280;64333;50.138;14.332;2023-01-25T10:59:43;99600.16;;;3.32;83.70
75717;BME280;64333;50.138;14.332;2023-01-25T11:02:35;99587.38;;;3.29;84.48
75717;BME280;64333;50.138;14.332;2023-01-25T11:05:35;99582.25;;;3.23;85.14
75717;BME280;64333;50.138;14.332;2023-01-25T11:10:55;99576.34;;;3.38;83.59
75717;BME280;64333;50.138;14.332;2023-01-25T11:13:31;99578.84;;;3.24;84.16
75717;BME280;64333;50.138;14.332;2023-01-25T11:18:33;99578.88;;;3.33;83.76
75717;BME280;64333;50.138;14.332;2023-01-25T11:21:14;99572.97;;;3.45;83.14
75717;BME280;64333;50.138;14.332;2023-01-25T11:23:43;99567.84;;;3.33;84.26
75717;BME280;64333;50.138;14.332;2023-01-25T11:26:17;99564.25;;;3.08;85.15
75717;BME280;64333;50.138;14.332;2023-01-25T11:28:45;99560.97;;;3.24;84.55
75717;BME280;64333;50.138;14.332;2023-01-25T11:31:15;99566.78;;;2.99;85.25
75717;BME280;64333;50.138;14.332;2023-01-25T11:33:41;99547.25;;;3.04;85.15
75717;BME280;64333;50.138;14.332;2023-01-25T11:39:09;99552.44;;;3.24;84.21
75717;BME280;64333;50.138;14.332;2023-01-25T11:42:01;99548.25;;;3.30;84.25
75717;BME280;64333;50.138;14.332;2023-01-25T11:47:30;99543.16;;;3.38;83.37
75717;BME280;64333;50.138;14.332;2023-01-25T11:50:09;99532.13;;;3.46;82.90
75717;BME280;64333;50.138;14.332;2023-01-25T11:52:52;99531.25;;;3.38;82.66
75717;BME280;64333;50.138;14.332;2023-01-25T11:55:41;99520.97;;;3.23;83.84
75717;BME280;64333;50.138;14.332;2023-01-25T12:11:45;99475.06;;;3.32;81.19
75717;BME280;64333;50.138;14.332;2023-01-25T12:25:03;99447.84;;;3.40;80.85
75717;BME280;64333;50.138;14.332;2023-01-25T12:28:01;99449.53;;;3.41;80.41
75717;BME280;64333;50.138;14.332;2023-01-25T12:30:51;99437.59;;;3.27;80.83
75717;BME280;64333;50.138;14.332;2023-01-25T12:36:22;99435.91;;;3.33;81.00
75717;BME280;64333;50.138;14.332;2023-01-25T12:44:50;99419.81;;;3.49;80.14
75717;BME280;64333;50.138;14.332;2023-01-25T12:52:44;99406.22;;;3.71;79.06
75717;BME280;64333;50.138;14.332;2023-01-25T12:55:15;99396.84;;;3.64;78.58
75717;BME280;64333;50.138;14.332;2023-01-25T13:00:28;99385.75;;;3.64;79.82
75717;BME280;64333;50.138;14.332;2023-01-25T13:10:52;99373.81;;;3.46;79.77
75717;BME280;64333;50.138;14.332;2023-01-25T13:13:23;99364.47;;;3.45;79.01
75717;BME280;64333;50.138;14.332;2023-01-25T13:15:50;99358.47;;;3.31;79.82
75717;BME280;64333;50.138;14.332;2023-01-25T13:23:34;99362.63;;;3.02;81.04
75717;BME280;64333;50.138;14.332;2023-01-25T13:28:53;99355.88;;;3.06;81.13
75717;BME280;64333;50.138;14.332;2023-01-25T13:34:57;99343.06;;;2.95;81.91
75717;BME280;64333;50.138;14.332;2023-01-25T13:36:58;99346.50;;;3.05;80.65
75717;BME280;64333;50.138;14.332;2023-01-25T13:42:03;99343.94;;;3.00;81.36
75717;BME280;64333;50.138;14.332;2023-01-25T13:44:32;99334.59;;;3.01;80.95
75717;BME280;64333;50.138;14.332;2023-01-25T13:47:01;99326.09;;;3.11;81.32
75717;BME280;64333;50.138;14.332;2023-01-25T13:49:40;99335.50;;;3.22;80.65
75717;BME280;64333;50.138;14.332;2023-01-25T13:52:10;99330.38;;;3.28;80.42
75717;BME280;64333;50.138;14.332;2023-01-25T13:54:45;99322.72;;;3.16;81.15
75717;BME280;64333;50.138;14.332;2023-01-25T13:57:13;99314.22;;;3.22;80.72
75717;BME280;64333;50.138;14.332;2023-01-25T13:59:39;99328.72;;;3.36;80.26
75717;BME280;64333;50.138;14.332;2023-01-25T14:02:30;99319.28;;;3.07;81.59
75717;BME280;64333;50.138;14.332;2023-01-25T14:04:57;99322.72;;;3.25;80.89
75717;BME280;64333;50.138;14.332;2023-01-25T14:07:29;99318.47;;;3.35;80.44
75717;BME280;64333;50.138;14.332;2023-01-25T14:09:57;99311.66;;;3.35;80.03
75717;BME280;64333;50.138;14.332;2023-01-25T14:12:37;99318.47;;;3.39;80.11
75717;BME280;64333;50.138;14.332;2023-01-25T14:18:08;99303.16;;;3.24;80.17
75717;BME280;64333;50.138;14.332;2023-01-25T14:20:35;99306.50;;;3.08;80.61
75717;BME280;64333;50.138;14.332;2023-01-25T14:23:00;99283.56;;;2.96;80.51
75717;BME280;64333;50.138;14.332;2023-01-25T14:25:26;99303.09;;;3.00;81.66
75717;BME280;64333;50.138;14.332;2023-01-25T14:30:22;99312.47;;;2.98;81.59
75717;BME280;64333;50.138;14.332;2023-01-25T14:32:49;99307.34;;;2.98;81.38
75717;BME280;64333;50.138;14.332;2023-01-25T14:37:52;99307.38;;;3.03;80.69
75717;BME280;64333;50.138;14.332;2023-01-25T14:40:21;99294.56;;;2.82;81.50
75717;BME280;64333;50.138;14.332;2023-01-25T14:42:48;99296.28;;;2.90;81.36
75717;BME280;64333;50.138;14.332;2023-01-25T14:45:15;99303.94;;;2.84;82.83
75717;BME280;64333;50.138;14.332;2023-01-25T14:47:41;99299.59;;;2.68;85.25
75717;BME280;64333;50.138;14.332;2023-01-25T14:52:54;99291.91;;;2.49;85.26
75717;BME280;64333;50.138;14.332;2023-01-25T14:55:19;99301.31;;;2.63;84.17
75717;BME280;64333;50.138;14.332;2023-01-25T14:57:45;99291.94;;;2.59;83.79
75717;BME280;64333;50.138;14.332;2023-01-25T15:00:21;99301.25;;;2.47;84.48
75717;BME280;64333;50.138;14.332;2023-01-25T15:02:51;99265.44;;;2.21;85.13